Terminal Aerodrome Forecast
Issued by NWS

Home | Current Version | Previous Version | Text Only | Print | Product List | Glossary On
Versions: 1 2 3 4 5 6 7 8 9 10 11 12 13 14 15 16 17 18 19 20 21 22 23 24 25 26
000
FTUS43 KSGF 250500
TAFJLN
TAF
KJLN 250529Z 2506/2606 21007KT 6SM BR BKN004 BKN025
      TEMPO 2506/2509 4SM BR SCT004
     FM250900 18007KT 3SM BR BKN003
      TEMPO 2509/2513 1/2SM FG VV002
     FM251500 17012KT 4SM BR BKN007 OVC025
     FM251600 18013G21KT 6SM BR OVC015
     FM252000 18012G21KT P6SM SCT035
     FM260000 18008KT P6SM SCT035 BKN200 PROB30 2602/2606 5SM -TSRA
      BR BKN030CB=

USA.gov is the U.S. government's official web portal to all federal, state and local government web resources and services.